首页
METAR-TAF:

METAR-TAF

机场 :

萨尔瓦多奥斯卡·阿努尔福·罗梅罗-伊-加尔达梅斯主教国际机场

萨尔瓦多, 萨尔瓦多

纬度: 13-26N, 经度: 089-03W, 海拔: 25米

当前天气观测

该预报发布于30分钟前的01:50 UTC
风速5节,风向北转西北,在西之间变化
温度 26°C
湿度 94%
气压 1011 hPa
能见度10公里或以上
散云层高于6500英尺

METAR: MSLP 220150Z 33005KT 280V010 9999 SCT065 26/25 Q1010 A2984 NOSIG

时间: 20:20 (02:20 UTC)

预报

该预报发布于4小时和55分钟前的21:25 UTC
预报有效从22日的 00点(UTC)到 22日的 24点(UTC)
风速3节,风向多变
能见度10公里或以上
散云层高于2300英尺
少量云层高于3300英尺, 积雨云.
多云层高于6000英尺
几率 40% :
短暂存在
从 22日的 05点(UTC)到 22日的 08点(UTC)
能見度: 5000
阵雨
从 22日的 1200点(UTC)
风速3节,风向东转东北
能见度10公里或以上
散云层高于2300英尺
散云层高于6000英尺
从 22日的 1800点(UTC)
风速10节,风向南转西南
能见度10公里或以上
散云层高于2300英尺
少量云层高于3300英尺, 积雨云.
散云层高于6000英尺
短暂存在
从 22日的 20点(UTC)到 22日的 22点(UTC)
能見度: 5000
阵雨

TAF: MSLP 212125Z 2200/2224 VRB03KT 9999 SCT023 FEW033CB BKN060 TX31/2218Z TN23/2212Z PROB40 TEMPO 2205/2208 5000 SHRA FM221200 06003KT 9999 SCT023 SCT060 FM221800 21010KT 9999 SCT023 FEW033CB SCT060 TEMPO 2220/2222 5000 SHRA

超过4000个机场的气象观测和天气预报(METAR&TAF报告)。

可查询的气象台以黄色和红色小点在地图上表示。

将鼠标移到小点上方,可查看气象台名称。

然后点击查看天气观测和预报。

如需切换地图:点击带黑十字的绿色按钮放大地图;点击带横线的绿色按钮缩小地图;或者点击绿色箭头查看邻近地区的地图。


METAR-TAF: